sensor_id;sensor_type;location;lat;lon;timestamp;temperature;humidity
26623;DHT22;14254;50.968;5.366;2023-07-30T00:02:03;18.70;99.90
26623;DHT22;14254;50.968;5.366;2023-07-30T00:04:29;18.80;99.90
26623;DHT22;14254;50.968;5.366;2023-07-30T00:06:54;18.80;99.90
26623;DHT22;14254;50.968;5.366;2023-07-30T00:09:20;18.80;99.90
26623;DHT22;14254;50.968;5.366;2023-07-30T00:11:46;18.80;99.90
26623;DHT22;14254;50.968;5.366;2023-07-30T00:14:12;18.70;99.90
26623;DHT22;14254;50.968;5.366;2023-07-30T00:16:37;18.70;99.90
26623;DHT22;14254;50.968;5.366;2023-07-30T00:19:03;18.70;99.90
26623;DHT22;14254;50.968;5.366;2023-07-30T00:21:29;18.60;99.90
26623;DHT22;14254;50.968;5.366;2023-07-30T00:23:54;18.60;99.90
26623;DHT22;14254;50.968;5.366;2023-07-30T00:26:20;18.60;99.90
26623;DHT22;14254;50.968;5.366;2023-07-30T00:28:46;18.60;99.90
26623;DHT22;14254;50.968;5.366;2023-07-30T00:31:11;18.60;99.90
26623;DHT22;14254;50.968;5.366;2023-07-30T00:33:37;18.50;99.90
26623;DHT22;14254;50.968;5.366;2023-07-30T00:36:03;18.50;99.90
26623;DHT22;14254;50.968;5.366;2023-07-30T00:38:28;18.50;99.90
26623;DHT22;14254;50.968;5.366;2023-07-30T00:40:54;18.30;99.90
26623;DHT22;14254;50.968;5.366;2023-07-30T00:43:21;18.30;99.90
26623;DHT22;14254;50.968;5.366;2023-07-30T00:45:46;18.20;99.90
26623;DHT22;14254;50.968;5.366;2023-07-30T00:48:13;17.90;99.90
26623;DHT22;14254;50.968;5.366;2023-07-30T00:50:40;17.80;99.90
26623;DHT22;14254;50.968;5.366;2023-07-30T00:53:07;17.70;99.90
26623;DHT22;14254;50.968;5.366;2023-07-30T00:55:33;17.70;99.90
26623;DHT22;14254;50.968;5.366;2023-07-30T00:58:00;17.70;99.90
26623;DHT22;14254;50.968;5.366;2023-07-30T01:00:26;17.70;99.90
26623;DHT22;14254;50.968;5.366;2023-07-30T01:02:54;17.70;99.90
26623;DHT22;14254;50.968;5.366;2023-07-30T01:05:19;17.60;99.90
26623;DHT22;14254;50.968;5.366;2023-07-30T01:07:45;17.60;99.90
26623;DHT22;14254;50.968;5.366;2023-07-30T01:10:11;17.60;99.90
26623;DHT22;14254;50.968;5.366;2023-07-30T01:12:37;17.60;99.90
26623;DHT22;14254;50.968;5.366;2023-07-30T01:15:04;17.50;99.90
26623;DHT22;14254;50.968;5.366;2023-07-30T01:17:31;17.50;99.90
26623;DHT22;14254;50.968;5.366;2023-07-30T01:19:57;17.50;99.90
26623;DHT22;14254;50.968;5.366;2023-07-30T01:22:23;17.50;99.90
26623;DHT22;14254;50.968;5.366;2023-07-30T01:24:49;17.50;99.90
26623;DHT22;14254;50.968;5.366;2023-07-30T01:27:22;17.40;99.90
26623;DHT22;14254;50.968;5.366;2023-07-30T01:29:52;17.40;99.90
26623;DHT22;14254;50.968;5.366;2023-07-30T01:32:24;17.40;99.90
26623;DHT22;14254;50.968;5.366;2023-07-30T01:34:52;17.40;99.90
26623;DHT22;14254;50.968;5.366;2023-07-30T01:37:19;17.30;99.90
26623;DHT22;14254;50.968;5.366;2023-07-30T01:39:46;17.30;99.90
26623;DHT22;14254;50.968;5.366;2023-07-30T01:42:13;17.20;99.90
26623;DHT22;14254;50.968;5.366;2023-07-30T01:44:38;17.20;99.90
26623;DHT22;14254;50.968;5.366;2023-07-30T01:47:04;17.20;99.90
26623;DHT22;14254;50.968;5.366;2023-07-30T01:49:30;17.30;99.90
26623;DHT22;14254;50.968;5.366;2023-07-30T01:51:55;17.50;99.90
26623;DHT22;14254;50.968;5.366;2023-07-30T01:54:21;17.60;99.90
26623;DHT22;14254;50.968;5.366;2023-07-30T01:56:47;17.60;99.90
26623;DHT22;14254;50.968;5.366;2023-07-30T01:59:13;17.60;99.90
26623;DHT22;14254;50.968;5.366;2023-07-30T02:01:39;17.50;99.90
26623;DHT22;14254;50.968;5.366;2023-07-30T02:04:05;17.60;99.90
26623;DHT22;14254;50.968;5.366;2023-07-30T02:06:30;17.60;99.90
26623;DHT22;14254;50.968;5.366;2023-07-30T02:08:56;17.60;99.90
26623;DHT22;14254;50.968;5.366;2023-07-30T02:11:22;17.60;99.90
26623;DHT22;14254;50.968;5.366;2023-07-30T02:13:47;17.60;99.90
26623;DHT22;14254;50.968;5.366;2023-07-30T02:16:13;17.60;99.90
26623;DHT22;14254;50.968;5.366;2023-07-30T02:18:39;17.50;99.90
26623;DHT22;14254;50.968;5.366;2023-07-30T02:21:04;17.50;99.90
26623;DHT22;14254;50.968;5.366;2023-07-30T02:23:30;17.50;99.90
26623;DHT22;14254;50.968;5.366;2023-07-30T02:25:55;17.40;99.90
26623;DHT22;14254;50.968;5.366;2023-07-30T02:28:21;17.40;99.90
26623;DHT22;14254;50.968;5.366;2023-07-30T02:30:47;17.40;99.90
26623;DHT22;14254;50.968;5.366;2023-07-30T02:33:12;17.40;99.90
26623;DHT22;14254;50.968;5.366;2023-07-30T02:35:38;17.30;99.90
26623;DHT22;14254;50.968;5.366;2023-07-30T02:38:03;17.30;99.90
26623;DHT22;14254;50.968;5.366;2023-07-30T02:40:29;17.30;99.90
26623;DHT22;14254;50.968;5.366;2023-07-30T02:42:56;17.30;99.90
26623;DHT22;14254;50.968;5.366;2023-07-30T02:45:21;17.30;99.90
26623;DHT22;14254;50.968;5.366;2023-07-30T02:47:47;17.40;99.90
26623;DHT22;14254;50.968;5.366;2023-07-30T02:50:13;17.40;99.90
26623;DHT22;14254;50.968;5.366;2023-07-30T02:52:39;17.40;99.90
26623;DHT22;14254;50.968;5.366;2023-07-30T02:55:05;17.40;99.90
26623;DHT22;14254;50.968;5.366;2023-07-30T02:57:31;17.50;99.90
26623;DHT22;14254;50.968;5.366;2023-07-30T02:59:56;17.40;99.90
26623;DHT22;14254;50.968;5.366;2023-07-30T03:02:22;17.30;99.90
26623;DHT22;14254;50.968;5.366;2023-07-30T03:04:48;17.30;99.90
26623;DHT22;14254;50.968;5.366;2023-07-30T03:07:14;17.30;99.90
26623;DHT22;14254;50.968;5.366;2023-07-30T03:09:39;17.20;99.90
26623;DHT22;14254;50.968;5.366;2023-07-30T03:12:05;17.20;99.90
26623;DHT22;14254;50.968;5.366;2023-07-30T03:14:31;17.10;99.90
26623;DHT22;14254;50.968;5.366;2023-07-30T03:16:57;17.20;99.90
26623;DHT22;14254;50.968;5.366;2023-07-30T03:19:22;17.20;99.90
26623;DHT22;14254;50.968;5.366;2023-07-30T03:21:48;17.10;99.90
26623;DHT22;14254;50.968;5.366;2023-07-30T03:24:14;17.10;99.90
26623;DHT22;14254;50.968;5.366;2023-07-30T03:26:39;17.00;99.90
26623;DHT22;14254;50.968;5.366;2023-07-30T03:29:05;16.80;99.90
26623;DHT22;14254;50.968;5.366;2023-07-30T03:31:30;16.80;99.90
26623;DHT22;14254;50.968;5.366;2023-07-30T03:33:56;16.60;99.90
26623;DHT22;14254;50.968;5.366;2023-07-30T03:36:22;16.50;99.90
26623;DHT22;14254;50.968;5.366;2023-07-30T03:38:47;16.50;99.90
26623;DHT22;14254;50.968;5.366;2023-07-30T03:41:13;16.40;99.90
26623;DHT22;14254;50.968;5.366;2023-07-30T03:43:39;16.40;99.90
26623;DHT22;14254;50.968;5.366;2023-07-30T03:46:04;16.30;99.90
26623;DHT22;14254;50.968;5.366;2023-07-30T03:48:30;16.30;99.90
26623;DHT22;14254;50.968;5.366;2023-07-30T03:50:56;16.40;99.90
26623;DHT22;14254;50.968;5.366;2023-07-30T03:53:22;16.30;99.90
26623;DHT22;14254;50.968;5.366;2023-07-30T03:55:48;16.40;99.90
26623;DHT22;14254;50.968;5.366;2023-07-30T03:58:14;16.40;99.90
26623;DHT22;14254;50.968;5.366;2023-07-30T04:00:40;16.40;99.90
26623;DHT22;14254;50.968;5.366;2023-07-30T04:03:06;16.40;99.90
26623;DHT22;14254;50.968;5.366;2023-07-30T04:05:32;16.40;99.90
26623;DHT22;14254;50.968;5.366;2023-07-30T04:07:57;16.40;99.90
26623;DHT22;14254;50.968;5.366;2023-07-30T04:10:23;16.50;99.90
26623;DHT22;14254;50.968;5.366;2023-07-30T04:12:49;16.40;99.90
26623;DHT22;14254;50.968;5.366;2023-07-30T04:15:16;16.30;99.90
26623;DHT22;14254;50.968;5.366;2023-07-30T04:17:42;16.20;99.90
26623;DHT22;14254;50.968;5.366;2023-07-30T04:20:08;16.10;99.90
26623;DHT22;14254;50.968;5.366;2023-07-30T04:22:37;16.10;99.90
26623;DHT22;14254;50.968;5.366;2023-07-30T04:25:03;16.30;99.90
26623;DHT22;14254;50.968;5.366;2023-07-30T04:27:29;16.20;99.90
26623;DHT22;14254;50.968;5.366;2023-07-30T04:29:55;16.20;99.90
26623;DHT22;14254;50.968;5.366;2023-07-30T04:32:21;16.20;99.90
26623;DHT22;14254;50.968;5.366;2023-07-30T04:34:46;16.30;99.90
26623;DHT22;14254;50.968;5.366;2023-07-30T04:37:12;16.50;99.90
26623;DHT22;14254;50.968;5.366;2023-07-30T04:39:38;16.60;99.90
26623;DHT22;14254;50.968;5.366;2023-07-30T04:42:03;16.60;99.90
26623;DHT22;14254;50.968;5.366;2023-07-30T04:44:29;16.60;99.90
26623;DHT22;14254;50.968;5.366;2023-07-30T04:46:55;16.70;99.90
26623;DHT22;14254;50.968;5.366;2023-07-30T04:49:21;16.60;99.90
26623;DHT22;14254;50.968;5.366;2023-07-30T04:51:46;16.50;99.90
26623;DHT22;14254;50.968;5.366;2023-07-30T04:54:12;16.60;99.90
26623;DHT22;14254;50.968;5.366;2023-07-30T04:56:38;16.70;99.90
26623;DHT22;14254;50.968;5.366;2023-07-30T04:59:03;16.50;99.90
26623;DHT22;14254;50.968;5.366;2023-07-30T05:01:29;16.50;99.90
26623;DHT22;14254;50.968;5.366;2023-07-30T05:03:56;16.60;99.90
26623;DHT22;14254;50.968;5.366;2023-07-30T05:06:22;16.60;99.90
26623;DHT22;14254;50.968;5.366;2023-07-30T05:08:48;16.70;99.90
26623;DHT22;14254;50.968;5.366;2023-07-30T05:11:14;16.50;99.90
26623;DHT22;14254;50.968;5.366;2023-07-30T05:13:39;16.60;99.90
26623;DHT22;14254;50.968;5.366;2023-07-30T05:16:05;16.70;99.90
26623;DHT22;14254;50.968;5.366;2023-07-30T05:18:31;16.90;99.90
26623;DHT22;14254;50.968;5.366;2023-07-30T05:20:56;17.00;99.90
26623;DHT22;14254;50.968;5.366;2023-07-30T05:23:22;17.00;99.90
26623;DHT22;14254;50.968;5.366;2023-07-30T05:25:47;17.10;99.90
26623;DHT22;14254;50.968;5.366;2023-07-30T05:28:13;17.20;99.90
26623;DHT22;14254;50.968;5.366;2023-07-30T05:30:39;17.10;99.90
26623;DHT22;14254;50.968;5.366;2023-07-30T05:33:05;17.10;99.90
26623;DHT22;14254;50.968;5.366;2023-07-30T05:35:30;17.20;99.90
26623;DHT22;14254;50.968;5.366;2023-07-30T05:37:56;17.20;99.90
26623;DHT22;14254;50.968;5.366;2023-07-30T05:40:22;17.20;99.90
26623;DHT22;14254;50.968;5.366;2023-07-30T05:42:48;17.10;99.90
26623;DHT22;14254;50.968;5.366;2023-07-30T05:45:13;17.10;99.90
26623;DHT22;14254;50.968;5.366;2023-07-30T05:47:39;17.10;99.90
26623;DHT22;14254;50.968;5.366;2023-07-30T05:50:06;17.00;99.90
26623;DHT22;14254;50.968;5.366;2023-07-30T05:52:32;17.10;99.90
26623;DHT22;14254;50.968;5.366;2023-07-30T05:54:58;17.20;99.90
26623;DHT22;14254;50.968;5.366;2023-07-30T05:57:23;17.30;99.90
26623;DHT22;14254;50.968;5.366;2023-07-30T05:59:49;17.40;99.90
26623;DHT22;14254;50.968;5.366;2023-07-30T06:02:15;17.40;99.90
26623;DHT22;14254;50.968;5.366;2023-07-30T06:04:40;17.40;99.90
26623;DHT22;14254;50.968;5.366;2023-07-30T06:07:06;17.50;99.90
26623;DHT22;14254;50.968;5.366;2023-07-30T06:09:32;17.60;99.90
26623;DHT22;14254;50.968;5.366;2023-07-30T06:11:58;17.50;99.90
26623;DHT22;14254;50.968;5.366;2023-07-30T06:14:24;17.40;99.90
26623;DHT22;14254;50.968;5.366;2023-07-30T06:16:51;17.50;99.90
26623;DHT22;14254;50.968;5.366;2023-07-30T06:19:16;17.60;99.90
26623;DHT22;14254;50.968;5.366;2023-07-30T06:21:42;17.60;99.90
26623;DHT22;14254;50.968;5.366;2023-07-30T06:24:08;17.70;99.90
26623;DHT22;14254;50.968;5.366;2023-07-30T06:26:33;17.80;99.90
26623;DHT22;14254;50.968;5.366;2023-07-30T06:28:59;17.80;99.90
26623;DHT22;14254;50.968;5.366;2023-07-30T06:31:25;17.80;99.90
26623;DHT22;14254;50.968;5.366;2023-07-30T06:33:50;17.80;99.90
26623;DHT22;14254;50.968;5.366;2023-07-30T06:36:16;17.90;99.90
26623;DHT22;14254;50.968;5.366;2023-07-30T06:38:42;17.90;99.90
26623;DHT22;14254;50.968;5.366;2023-07-30T06:41:07;18.00;99.90
26623;DHT22;14254;50.968;5.366;2023-07-30T06:43:33;18.10;99.90
26623;DHT22;14254;50.968;5.366;2023-07-30T06:45:59;18.30;99.90
26623;DHT22;14254;50.968;5.366;2023-07-30T06:48:24;18.30;99.90
26623;DHT22;14254;50.968;5.366;2023-07-30T06:50:50;18.40;99.90
26623;DHT22;14254;50.968;5.366;2023-07-30T06:53:16;18.40;99.90
26623;DHT22;14254;50.968;5.366;2023-07-30T06:55:41;18.50;99.90
26623;DHT22;14254;50.968;5.366;2023-07-30T06:58:07;18.50;99.90
26623;DHT22;14254;50.968;5.366;2023-07-30T07:00:32;18.30;99.90
26623;DHT22;14254;50.968;5.366;2023-07-30T07:02:58;18.40;99.90
26623;DHT22;14254;50.968;5.366;2023-07-30T07:05:24;18.30;99.90
26623;DHT22;14254;50.968;5.366;2023-07-30T07:07:50;18.30;99.90
26623;DHT22;14254;50.968;5.366;2023-07-30T07:10:15;18.20;99.90
26623;DHT22;14254;50.968;5.366;2023-07-30T07:12:41;18.20;99.90
26623;DHT22;14254;50.968;5.366;2023-07-30T07:15:07;18.20;99.90
26623;DHT22;14254;50.968;5.366;2023-07-30T07:17:33;18.30;99.90
26623;DHT22;14254;50.968;5.366;2023-07-30T07:19:58;18.20;99.90
26623;DHT22;14254;50.968;5.366;2023-07-30T07:22:24;18.20;99.90
26623;DHT22;14254;50.968;5.366;2023-07-30T07:24:53;18.10;99.90
26623;DHT22;14254;50.968;5.366;2023-07-30T07:27:19;17.90;99.90
26623;DHT22;14254;50.968;5.366;2023-07-30T07:29:44;17.90;99.90
26623;DHT22;14254;50.968;5.366;2023-07-30T07:32:10;17.90;99.90
26623;DHT22;14254;50.968;5.366;2023-07-30T07:34:36;17.90;99.90
26623;DHT22;14254;50.968;5.366;2023-07-30T07:37:02;18.00;99.90
26623;DHT22;14254;50.968;5.366;2023-07-30T07:39:28;18.10;99.90
26623;DHT22;14254;50.968;5.366;2023-07-30T07:41:55;18.30;99.90
26623;DHT22;14254;50.968;5.366;2023-07-30T07:44:20;18.40;99.90
26623;DHT22;14254;50.968;5.366;2023-07-30T07:46:47;18.60;99.90
26623;DHT22;14254;50.968;5.366;2023-07-30T07:49:12;18.70;99.90
26623;DHT22;14254;50.968;5.366;2023-07-30T07:51:38;19.00;99.90
26623;DHT22;14254;50.968;5.366;2023-07-30T07:54:04;19.10;99.90
26623;DHT22;14254;50.968;5.366;2023-07-30T07:56:30;19.20;99.90
26623;DHT22;14254;50.968;5.366;2023-07-30T07:58:57;19.20;99.90
26623;DHT22;14254;50.968;5.366;2023-07-30T08:01:22;19.30;99.90
26623;DHT22;14254;50.968;5.366;2023-07-30T08:03:48;19.40;99.90
26623;DHT22;14254;50.968;5.366;2023-07-30T08:06:13;19.40;99.90
26623;DHT22;14254;50.968;5.366;2023-07-30T08:08:39;19.30;99.90
26623;DHT22;14254;50.968;5.366;2023-07-30T08:11:06;19.30;99.90
26623;DHT22;14254;50.968;5.366;2023-07-30T08:13:32;19.30;99.90
26623;DHT22;14254;50.968;5.366;2023-07-30T08:15:58;19.30;99.90
26623;DHT22;14254;50.968;5.366;2023-07-30T08:18:24;19.20;99.90
26623;DHT22;14254;50.968;5.366;2023-07-30T08:20:50;19.40;99.90
26623;DHT22;14254;50.968;5.366;2023-07-30T08:23:15;19.50;99.90
26623;DHT22;14254;50.968;5.366;2023-07-30T08:25:41;19.50;99.90
26623;DHT22;14254;50.968;5.366;2023-07-30T08:28:07;19.60;99.90
26623;DHT22;14254;50.968;5.366;2023-07-30T08:30:32;19.50;99.90
26623;DHT22;14254;50.968;5.366;2023-07-30T08:32:58;19.70;99.90
26623;DHT22;14254;50.968;5.366;2023-07-30T08:35:24;19.80;99.90
26623;DHT22;14254;50.968;5.366;2023-07-30T08:37:49;19.90;99.90
26623;DHT22;14254;50.968;5.366;2023-07-30T08:40:15;20.20;99.90
26623;DHT22;14254;50.968;5.366;2023-07-30T08:42:41;20.50;99.90
26623;DHT22;14254;50.968;5.366;2023-07-30T08:45:07;20.50;99.90
26623;DHT22;14254;50.968;5.366;2023-07-30T08:47:37;20.50;99.90
26623;DHT22;14254;50.968;5.366;2023-07-30T08:50:03;20.70;99.90
26623;DHT22;14254;50.968;5.366;2023-07-30T08:52:29;21.00;99.90
26623;DHT22;14254;50.968;5.366;2023-07-30T08:54:57;21.10;99.90
26623;DHT22;14254;50.968;5.366;2023-07-30T08:57:24;21.10;99.90
26623;DHT22;14254;50.968;5.366;2023-07-30T09:00:02;21.00;99.90
26623;DHT22;14254;50.968;5.366;2023-07-30T09:02:48;20.90;99.90
26623;DHT22;14254;50.968;5.366;2023-07-30T09:05:15;21.10;99.90
26623;DHT22;14254;50.968;5.366;2023-07-30T09:07:41;21.10;99.90
26623;DHT22;14254;50.968;5.366;2023-07-30T09:10:07;21.40;99.90
26623;DHT22;14254;50.968;5.366;2023-07-30T09:12:34;21.70;99.90
26623;DHT22;14254;50.968;5.366;2023-07-30T09:15:02;21.70;99.90
26623;DHT22;14254;50.968;5.366;2023-07-30T09:17:28;21.80;99.90
26623;DHT22;14254;50.968;5.366;2023-07-30T09:19:54;21.80;99.90
26623;DHT22;14254;50.968;5.366;2023-07-30T09:22:28;21.60;99.90
26623;DHT22;14254;50.968;5.366;2023-07-30T09:24:57;21.20;99.90
26623;DHT22;14254;50.968;5.366;2023-07-30T09:27:24;20.90;99.90
26623;DHT22;14254;50.968;5.366;2023-07-30T09:29:55;20.70;99.90
26623;DHT22;14254;50.968;5.366;2023-07-30T09:32:29;20.60;99.90
26623;DHT22;14254;50.968;5.366;2023-07-30T09:34:55;20.40;99.90
26623;DHT22;14254;50.968;5.366;2023-07-30T09:37:21;20.60;99.90
26623;DHT22;14254;50.968;5.366;2023-07-30T09:39:48;20.70;99.90
26623;DHT22;14254;50.968;5.366;2023-07-30T09:42:14;20.90;99.90
26623;DHT22;14254;50.968;5.366;2023-07-30T09:44:40;21.30;99.90
26623;DHT22;14254;50.968;5.366;2023-07-30T09:47:09;21.70;99.90
26623;DHT22;14254;50.968;5.366;2023-07-30T09:49:36;22.00;99.90
26623;DHT22;14254;50.968;5.366;2023-07-30T09:52:03;22.00;99.90
26623;DHT22;14254;50.968;5.366;2023-07-30T09:54:31;22.00;99.90
26623;DHT22;14254;50.968;5.366;2023-07-30T09:56:57;21.70;99.90
26623;DHT22;14254;50.968;5.366;2023-07-30T09:59:23;21.70;99.90
26623;DHT22;14254;50.968;5.366;2023-07-30T10:01:49;21.50;99.90
26623;DHT22;14254;50.968;5.366;2023-07-30T10:04:18;20.30;99.90
26623;DHT22;14254;50.968;5.366;2023-07-30T10:06:58;19.60;99.90
26623;DHT22;14254;50.968;5.366;2023-07-30T10:09:28;19.10;99.90
26623;DHT22;14254;50.968;5.366;2023-07-30T10:11:55;18.70;99.90
26623;DHT22;14254;50.968;5.366;2023-07-30T10:14:23;18.30;99.90
26623;DHT22;14254;50.968;5.366;2023-07-30T10:16:53;18.10;99.90
26623;DHT22;14254;50.968;5.366;2023-07-30T10:19:27;18.00;99.90
26623;DHT22;14254;50.968;5.366;2023-07-30T10:24:55;17.50;99.90
26623;DHT22;14254;50.968;5.366;2023-07-30T10:27:24;17.50;99.90
26623;DHT22;14254;50.968;5.366;2023-07-30T10:35:43;17.20;99.90
26623;DHT22;14254;50.968;5.366;2023-07-30T10:38:28;17.00;99.90
26623;DHT22;14254;50.968;5.366;2023-07-30T10:41:12;16.90;99.90
26623;DHT22;14254;50.968;5.366;2023-07-30T10:43:49;17.00;99.90
26623;DHT22;14254;50.968;5.366;2023-07-30T10:46:17;17.10;99.90
26623;DHT22;14254;50.968;5.366;2023-07-30T10:48:44;17.30;99.90
26623;DHT22;14254;50.968;5.366;2023-07-30T10:51:15;17.60;99.90
26623;DHT22;14254;50.968;5.366;2023-07-30T10:53:45;17.80;99.90
26623;DHT22;14254;50.968;5.366;2023-07-30T10:56:12;18.10;99.90
26623;DHT22;14254;50.968;5.366;2023-07-30T10:58:38;18.10;99.90
26623;DHT22;14254;50.968;5.366;2023-07-30T11:01:08;18.20;99.90
26623;DHT22;14254;50.968;5.366;2023-07-30T11:03:34;18.30;99.90
26623;DHT22;14254;50.968;5.366;2023-07-30T11:06:02;18.60;99.90
26623;DHT22;14254;50.968;5.366;2023-07-30T11:08:39;18.70;99.90
26623;DHT22;14254;50.968;5.366;2023-07-30T11:11:07;18.60;99.90
26623;DHT22;14254;50.968;5.366;2023-07-30T11:13:51;18.20;99.90
26623;DHT22;14254;50.968;5.366;2023-07-30T11:16:17;17.80;99.90
26623;DHT22;14254;50.968;5.366;2023-07-30T11:18:44;17.50;99.90
26623;DHT22;14254;50.968;5.366;2023-07-30T11:21:10;17.30;99.90
26623;DHT22;14254;50.968;5.366;2023-07-30T11:23:40;17.20;99.90
26623;DHT22;14254;50.968;5.366;2023-07-30T11:26:09;17.30;99.90
26623;DHT22;14254;50.968;5.366;2023-07-30T11:28:39;17.50;99.90
26623;DHT22;14254;50.968;5.366;2023-07-30T11:31:06;17.80;99.90
26623;DHT22;14254;50.968;5.366;2023-07-30T11:33:32;18.10;99.90
26623;DHT22;14254;50.968;5.366;2023-07-30T11:36:00;18.20;99.90
26623;DHT22;14254;50.968;5.366;2023-07-30T11:38:27;18.50;99.90
26623;DHT22;14254;50.968;5.366;2023-07-30T11:40:57;18.80;99.90
26623;DHT22;14254;50.968;5.366;2023-07-30T11:43:23;19.40;99.90
26623;DHT22;14254;50.968;5.366;2023-07-30T11:46:14;21.00;99.90
26623;DHT22;14254;50.968;5.366;2023-07-30T11:48:42;24.50;99.90
26623;DHT22;14254;50.968;5.366;2023-07-30T11:51:25;25.90;99.90
26623;DHT22;14254;50.968;5.366;2023-07-30T11:53:58;27.00;99.90
26623;DHT22;14254;50.968;5.366;2023-07-30T11:56:26;26.20;99.90
26623;DHT22;14254;50.968;5.366;2023-07-30T11:58:59;25.20;99.90
26623;DHT22;14254;50.968;5.366;2023-07-30T12:01:27;24.10;99.90
26623;DHT22;14254;50.968;5.366;2023-07-30T12:04:00;23.90;99.90
26623;DHT22;14254;50.968;5.366;2023-07-30T12:06:43;23.60;99.90
26623;DHT22;14254;50.968;5.366;2023-07-30T12:09:16;23.20;99.90
26623;DHT22;14254;50.968;5.366;2023-07-30T12:11:51;23.10;99.90
26623;DHT22;14254;50.968;5.366;2023-07-30T12:14:18;23.00;99.90
26623;DHT22;14254;50.968;5.366;2023-07-30T12:16:44;23.20;99.90
26623;DHT22;14254;50.968;5.366;2023-07-30T12:19:10;23.90;99.90
26623;DHT22;14254;50.968;5.366;2023-07-30T12:21:36;25.90;99.90
26623;DHT22;14254;50.968;5.366;2023-07-30T12:24:02;26.00;99.90
26623;DHT22;14254;50.968;5.366;2023-07-30T12:26:29;25.60;99.90
26623;DHT22;14254;50.968;5.366;2023-07-30T12:28:54;26.00;99.90
26623;DHT22;14254;50.968;5.366;2023-07-30T12:31:20;26.70;99.90
26623;DHT22;14254;50.968;5.366;2023-07-30T12:33:46;25.80;99.90
26623;DHT22;14254;50.968;5.366;2023-07-30T12:36:12;25.30;99.90
26623;DHT22;14254;50.968;5.366;2023-07-30T12:38:37;26.20;99.90
26623;DHT22;14254;50.968;5.366;2023-07-30T12:41:04;27.10;99.90
26623;DHT22;14254;50.968;5.366;2023-07-30T12:43:30;28.80;99.90
26623;DHT22;14254;50.968;5.366;2023-07-30T12:45:56;30.40;97.10
26623;DHT22;14254;50.968;5.366;2023-07-30T12:48:21;29.90;96.20
26623;DHT22;14254;50.968;5.366;2023-07-30T12:50:47;28.40;97.50
26623;DHT22;14254;50.968;5.366;2023-07-30T12:53:13;28.20;97.90
26623;DHT22;14254;50.968;5.366;2023-07-30T12:55:38;28.60;97.50
26623;DHT22;14254;50.968;5.366;2023-07-30T12:58:05;30.10;95.50
26623;DHT22;14254;50.968;5.366;2023-07-30T13:00:31;31.40;93.60
26623;DHT22;14254;50.968;5.366;2023-07-30T13:02:58;29.70;94.30
26623;DHT22;14254;50.968;5.366;2023-07-30T13:05:24;30.10;94.90
26623;DHT22;14254;50.968;5.366;2023-07-30T13:07:50;31.00;93.50
26623;DHT22;14254;50.968;5.366;2023-07-30T13:10:15;31.30;91.90
26623;DHT22;14254;50.968;5.366;2023-07-30T13:12:41;30.60;92.30
26623;DHT22;14254;50.968;5.366;2023-07-30T13:15:07;29.80;93.60
26623;DHT22;14254;50.968;5.366;2023-07-30T13:17:33;31.20;93.10
26623;DHT22;14254;50.968;5.366;2023-07-30T13:19:58;32.00;90.90
26623;DHT22;14254;50.968;5.366;2023-07-30T13:22:25;30.20;89.10
26623;DHT22;14254;50.968;5.366;2023-07-30T13:24:50;28.70;92.00
26623;DHT22;14254;50.968;5.366;2023-07-30T13:27:17;27.10;93.50
26623;DHT22;14254;50.968;5.366;2023-07-30T13:29:43;26.20;95.00
26623;DHT22;14254;50.968;5.366;2023-07-30T13:32:09;25.30;95.90
26623;DHT22;14254;50.968;5.366;2023-07-30T13:34:34;25.00;97.80
26623;DHT22;14254;50.968;5.366;2023-07-30T13:37:00;25.70;97.70
26623;DHT22;14254;50.968;5.366;2023-07-30T13:39:27;27.60;95.90
26623;DHT22;14254;50.968;5.366;2023-07-30T13:41:52;28.20;93.50
26623;DHT22;14254;50.968;5.366;2023-07-30T13:44:19;27.40;94.40
26623;DHT22;14254;50.968;5.366;2023-07-30T13:46:45;26.10;95.30
26623;DHT22;14254;50.968;5.366;2023-07-30T13:49:10;25.30;97.70
26623;DHT22;14254;50.968;5.366;2023-07-30T13:51:36;25.60;98.40
26623;DHT22;14254;50.968;5.366;2023-07-30T13:54:02;27.10;97.60
26623;DHT22;14254;50.968;5.366;2023-07-30T13:56:28;28.10;94.00
26623;DHT22;14254;50.968;5.366;2023-07-30T13:58:54;27.50;94.60
26623;DHT22;14254;50.968;5.366;2023-07-30T14:01:20;27.00;96.00
26623;DHT22;14254;50.968;5.366;2023-07-30T14:03:46;26.80;95.30
26623;DHT22;14254;50.968;5.366;2023-07-30T14:06:12;26.50;94.90
26623;DHT22;14254;50.968;5.366;2023-07-30T14:08:38;27.00;94.40
26623;DHT22;14254;50.968;5.366;2023-07-30T14:11:03;28.30;93.00
26623;DHT22;14254;50.968;5.366;2023-07-30T14:13:29;29.30;91.50
26623;DHT22;14254;50.968;5.366;2023-07-30T14:15:55;29.40;91.50
26623;DHT22;14254;50.968;5.366;2023-07-30T14:18:21;30.00;90.70
26623;DHT22;14254;50.968;5.366;2023-07-30T14:20:47;28.60;91.10
26623;DHT22;14254;50.968;5.366;2023-07-30T14:23:13;27.20;92.10
26623;DHT22;14254;50.968;5.366;2023-07-30T14:25:38;26.30;94.10
26623;DHT22;14254;50.968;5.366;2023-07-30T14:28:04;26.60;94.70
26623;DHT22;14254;50.968;5.366;2023-07-30T14:30:30;28.20;92.30
26623;DHT22;14254;50.968;5.366;2023-07-30T14:32:56;27.90;91.50
26623;DHT22;14254;50.968;5.366;2023-07-30T14:35:22;26.90;92.60
26623;DHT22;14254;50.968;5.366;2023-07-30T14:37:48;27.80;92.70
26623;DHT22;14254;50.968;5.366;2023-07-30T14:40:14;29.30;89.70
26623;DHT22;14254;50.968;5.366;2023-07-30T14:42:40;29.80;88.50
26623;DHT22;14254;50.968;5.366;2023-07-30T14:45:06;29.70;87.00
26623;DHT22;14254;50.968;5.366;2023-07-30T14:47:32;31.20;85.50
26623;DHT22;14254;50.968;5.366;2023-07-30T14:49:58;31.40;81.20
26623;DHT22;14254;50.968;5.366;2023-07-30T14:52:24;31.00;81.40
26623;DHT22;14254;50.968;5.366;2023-07-30T14:54:50;31.80;78.90
26623;DHT22;14254;50.968;5.366;2023-07-30T14:57:16;31.10;79.70
26623;DHT22;14254;50.968;5.366;2023-07-30T14:59:42;30.60;78.00
26623;DHT22;14254;50.968;5.366;2023-07-30T15:02:08;30.10;81.20
26623;DHT22;14254;50.968;5.366;2023-07-30T15:04:33;30.80;78.70
26623;DHT22;14254;50.968;5.366;2023-07-30T15:06:59;31.20;78.70
26623;DHT22;14254;50.968;5.366;2023-07-30T15:09:25;31.30;79.70
26623;DHT22;14254;50.968;5.366;2023-07-30T15:11:50;30.40;78.20
26623;DHT22;14254;50.968;5.366;2023-07-30T15:14:16;28.90;81.60
26623;DHT22;14254;50.968;5.366;2023-07-30T15:16:42;27.60;82.90
26623;DHT22;14254;50.968;5.366;2023-07-30T15:19:07;26.70;85.30
26623;DHT22;14254;50.968;5.366;2023-07-30T15:21:33;26.40;87.40
26623;DHT22;14254;50.968;5.366;2023-07-30T15:24:00;26.10;87.70
26623;DHT22;14254;50.968;5.366;2023-07-30T15:26:26;25.70;89.20
26623;DHT22;14254;50.968;5.366;2023-07-30T15:28:53;25.10;90.60
26623;DHT22;14254;50.968;5.366;2023-07-30T15:31:18;24.90;91.50
26623;DHT22;14254;50.968;5.366;2023-07-30T15:33:44;24.70;91.30
26623;DHT22;14254;50.968;5.366;2023-07-30T15:36:10;24.70;92.40